createdAt,value
2023-04-22T00:00:14.863Z,4.55
2023-04-22T00:02:42.078Z,4.22
2023-04-22T00:05:13.954Z,4.45
2023-04-22T00:10:11.653Z,4.32
2023-04-22T00:12:38.926Z,4.75
2023-04-22T00:15:06.824Z,4.22
2023-04-22T00:17:34.107Z,4.32
2023-04-22T00:20:01.717Z,3.95
2023-04-22T00:22:28.758Z,3.15
2023-04-22T00:24:55.796Z,3.00
2023-04-22T00:27:22.814Z,4.07
2023-04-22T00:29:49.942Z,3.97
2023-04-22T00:32:16.912Z,4.05
2023-04-22T00:34:43.930Z,2.97
2023-04-22T00:37:10.908Z,3.35
2023-04-22T00:39:39.792Z,3.55
2023-04-22T00:42:07.974Z,3.05
2023-04-22T00:44:36.786Z,3.30
2023-04-22T00:47:04.410Z,3.17
2023-04-22T00:49:32.423Z,3.08
2023-04-22T00:51:59.423Z,3.03
2023-04-22T00:54:26.673Z,3.22
2023-04-22T00:56:53.815Z,3.70
2023-04-22T00:59:22.647Z,3.25
2023-04-22T01:01:50.284Z,3.30
2023-04-22T01:04:17.923Z,3.20
2023-04-22T01:06:47.072Z,2.75
2023-04-22T01:09:14.052Z,2.55
2023-04-22T01:11:42.259Z,2.65
2023-04-22T01:14:09.367Z,2.38
2023-04-22T01:16:39.183Z,2.28
2023-04-22T01:19:06.562Z,2.50
2023-04-22T01:21:35.636Z,1.65
2023-04-22T01:24:03.189Z,2.20
2023-04-22T01:26:30.244Z,2.05
2023-04-22T01:28:57.318Z,2.15
2023-04-22T01:31:24.453Z,2.15
2023-04-22T01:33:52.003Z,2.85
2023-04-22T01:36:18.987Z,2.50
2023-04-22T01:38:46.190Z,2.75
2023-04-22T01:41:14.640Z,2.20
2023-04-22T01:43:42.996Z,2.25
2023-04-22T01:46:10.335Z,2.65
2023-04-22T01:48:38.345Z,2.80
2023-04-22T01:51:05.718Z,2.33
2023-04-22T01:53:32.702Z,2.85
2023-04-22T01:56:00.397Z,2.47
2023-04-22T01:58:30.199Z,3.05
2023-04-22T02:00:57.264Z,3.13
2023-04-22T02:03:24.437Z,2.35
2023-04-22T02:05:51.494Z,3.08
2023-04-22T02:08:18.471Z,2.83
2023-04-22T02:10:45.487Z,3.03
2023-04-22T02:13:12.462Z,2.95
2023-04-22T02:15:40.522Z,3.05
2023-04-22T02:18:10.125Z,3.53
2023-04-22T02:20:37.546Z,2.95
2023-04-22T02:23:04.740Z,3.30
2023-04-22T02:25:32.067Z,3.15
2023-04-22T02:27:59.072Z,2.67
2023-04-22T02:30:26.102Z,3.47
2023-04-22T02:32:53.080Z,3.28
2023-04-22T02:35:20.331Z,3.08
2023-04-22T02:37:47.298Z,2.92
2023-04-22T02:40:14.342Z,3.50
2023-04-22T02:42:41.375Z,2.80
2023-04-22T02:45:08.909Z,3.63
2023-04-22T02:47:36.206Z,3.67
2023-04-22T02:50:03.771Z,3.30
2023-04-22T02:52:30.738Z,3.40
2023-04-22T02:54:57.674Z,3.90
2023-04-22T02:57:24.650Z,3.38
2023-04-22T02:59:51.853Z,3.50
2023-04-22T03:02:18.988Z,4.13
2023-04-22T03:04:46.153Z,3.42
2023-04-22T03:07:13.117Z,3.75
2023-04-22T03:09:40.835Z,3.65
2023-04-22T03:12:08.205Z,3.35
2023-04-22T03:14:35.275Z,3.72
2023-04-22T03:17:02.509Z,3.22
2023-04-22T03:19:29.855Z,3.72
2023-04-22T03:21:57.423Z,4.35
2023-04-22T03:24:24.381Z,5.10
2023-04-22T03:26:51.423Z,4.05
2023-04-22T03:29:18.373Z,3.90
2023-04-22T03:31:45.533Z,3.53
2023-04-22T03:34:12.567Z,4.13
2023-04-22T03:36:39.619Z,4.47
2023-04-22T03:39:06.618Z,3.67
2023-04-22T03:41:33.586Z,3.72
2023-04-22T03:44:01.906Z,3.55
2023-04-22T03:46:29.231Z,4.13
2023-04-22T03:48:56.274Z,4.40
2023-04-22T03:51:23.260Z,4.28
2023-04-22T03:53:50.233Z,4.18
2023-04-22T03:56:17.199Z,3.78
2023-04-22T03:58:44.305Z,3.83
2023-04-22T04:01:11.562Z,3.33
2023-04-22T04:03:38.728Z,4.07
2023-04-22T04:06:05.952Z,3.55
2023-04-22T04:08:32.953Z,3.70
2023-04-22T04:11:00.001Z,4.00
2023-04-22T04:13:32.089Z,4.30
2023-04-22T04:16:00.468Z,3.72
2023-04-22T04:18:29.619Z,4.22
2023-04-22T04:20:57.665Z,3.28
2023-04-22T04:23:24.659Z,4.22
2023-04-22T04:25:52.012Z,3.75
2023-04-22T04:28:19.880Z,4.07
2023-04-22T04:30:59.084Z,4.20
2023-04-22T04:33:32.531Z,3.78
2023-04-22T04:36:02.520Z,4.13
2023-04-22T04:38:29.502Z,4.07
2023-04-22T04:40:56.637Z,4.32
2023-04-22T04:43:25.847Z,4.18
2023-04-22T04:45:53.464Z,3.67
2023-04-22T04:48:20.726Z,4.18
2023-04-22T04:50:50.378Z,4.15
2023-04-22T04:53:18.374Z,3.92
2023-04-22T04:55:46.670Z,3.92
2023-04-22T04:58:14.895Z,3.80
2023-04-22T05:00:41.878Z,4.68
2023-04-22T05:03:09.441Z,3.80
2023-04-22T05:05:36.585Z,4.90
2023-04-22T05:08:03.717Z,3.90
2023-04-22T05:10:30.919Z,4.10
2023-04-22T05:12:58.342Z,4.38
2023-04-22T05:15:25.423Z,4.00
2023-04-22T05:17:54.211Z,4.00
2023-04-22T05:20:21.238Z,4.78
2023-04-22T05:22:48.338Z,4.05
2023-04-22T05:25:16.026Z,4.38
2023-04-22T05:27:43.098Z,4.68
2023-04-22T05:30:10.770Z,4.38
2023-04-22T05:32:38.212Z,4.18
2023-04-22T05:35:06.071Z,4.95
2023-04-22T05:37:33.201Z,4.18
2023-04-22T05:40:00.302Z,5.15
2023-04-22T05:42:27.403Z,4.60
2023-04-22T05:44:54.413Z,4.55
2023-04-22T05:47:23.117Z,4.80
2023-04-22T05:49:50.168Z,4.38
2023-04-22T05:52:19.128Z,4.68
2023-04-22T05:54:48.394Z,3.85
2023-04-22T05:57:16.159Z,4.30
2023-04-22T05:59:43.333Z,4.40
2023-04-22T06:02:10.946Z,4.43
2023-04-22T06:04:38.360Z,4.43
2023-04-22T06:07:06.013Z,4.70
2023-04-22T06:09:33.169Z,3.95
2023-04-22T06:12:00.192Z,4.88
2023-04-22T06:14:27.226Z,4.43
2023-04-22T06:16:54.306Z,4.28
2023-04-22T06:19:21.367Z,4.68
2023-04-22T06:21:48.504Z,4.63
2023-04-22T06:24:15.628Z,4.85
2023-04-22T06:26:42.661Z,5.03
2023-04-22T06:29:09.761Z,4.75
2023-04-22T06:31:36.880Z,4.40
2023-04-22T06:34:05.122Z,4.70
2023-04-22T06:36:37.243Z,4.25
2023-04-22T06:39:05.996Z,5.25
2023-04-22T06:41:33.434Z,5.07
2023-04-22T06:44:00.484Z,4.07
2023-04-22T06:46:27.667Z,4.68
2023-04-22T06:48:54.831Z,4.93
2023-04-22T06:51:22.026Z,4.95
2023-04-22T06:53:50.664Z,4.50
2023-04-22T06:56:19.394Z,4.90
2023-04-22T06:58:46.468Z,4.90
2023-04-22T07:01:13.479Z,4.35
2023-04-22T07:03:40.659Z,4.57
2023-04-22T07:06:08.367Z,4.03
2023-04-22T07:08:35.550Z,4.65
2023-04-22T07:11:02.590Z,4.82
2023-04-22T07:13:34.005Z,4.47
2023-04-22T07:16:04.494Z,4.05
2023-04-22T07:18:32.082Z,4.93
2023-04-22T07:21:00.457Z,4.80
2023-04-22T07:23:27.447Z,4.70
2023-04-22T07:25:54.559Z,4.63
2023-04-22T07:28:21.801Z,4.28
2023-04-22T07:30:48.840Z,4.90
2023-04-22T07:33:15.894Z,3.97
2023-04-22T07:35:42.927Z,4.78
2023-04-22T07:38:10.681Z,3.75
2023-04-22T07:40:42.069Z,4.32
2023-04-22T07:43:09.076Z,4.28
2023-04-22T07:45:39.048Z,4.57
2023-04-22T07:48:09.186Z,4.10
2023-04-22T07:50:38.112Z,4.53
2023-04-22T07:53:06.196Z,4.60
2023-04-22T07:55:34.755Z,4.68
2023-04-22T07:58:06.214Z,4.13
2023-04-22T08:00:36.325Z,4.45
2023-04-22T08:03:04.915Z,4.20
2023-04-22T08:05:34.856Z,4.75
2023-04-22T08:08:06.514Z,4.20
2023-04-22T08:10:33.847Z,4.10
2023-04-22T08:13:08.559Z,6.25
2023-04-22T08:15:35.702Z,6.55
2023-04-22T08:18:02.785Z,5.78
2023-04-22T08:20:32.668Z,5.70
2023-04-22T08:23:00.692Z,5.80
2023-04-22T08:25:31.458Z,5.93
2023-04-22T08:27:58.608Z,5.75
2023-04-22T08:30:25.845Z,3.58
2023-04-22T08:32:56.077Z,4.50
2023-04-22T08:35:23.093Z,3.58
2023-04-22T08:37:50.068Z,3.15
2023-04-22T08:40:17.135Z,3.83
2023-04-22T08:42:45.395Z,4.35
2023-04-22T08:45:14.421Z,3.15
2023-04-22T08:47:42.760Z,3.97
2023-04-22T08:50:10.173Z,3.75
2023-04-22T08:52:37.978Z,3.72
2023-04-22T08:55:06.131Z,3.60
2023-04-22T08:57:33.783Z,3.80
2023-04-22T09:00:01.099Z,3.53
2023-04-22T09:02:32.219Z,3.22
2023-04-22T09:05:03.766Z,2.55
2023-04-22T09:07:32.791Z,3.35
2023-04-22T09:10:02.225Z,3.13
2023-04-22T09:12:29.404Z,3.30
2023-04-22T09:14:56.858Z,3.33
2023-04-22T09:17:38.420Z,3.42
2023-04-22T09:20:12.214Z,3.33
2023-04-22T09:22:49.731Z,3.17
2023-04-22T09:25:17.595Z,3.00
2023-04-22T09:27:58.810Z,3.45
2023-04-22T09:30:38.871Z,1.23
2023-04-22T09:33:07.478Z,4.20
2023-04-22T09:35:37.662Z,4.70
2023-04-22T09:38:10.695Z,4.13
2023-04-22T09:40:43.884Z,3.80
2023-04-22T09:43:11.758Z,3.20
2023-04-22T09:45:43.331Z,3.88
2023-04-22T09:48:15.244Z,3.90
2023-04-22T09:50:49.580Z,3.27
2023-04-22T09:53:21.845Z,4.40
2023-04-22T09:55:58.457Z,4.03
2023-04-22T09:58:27.731Z,4.35
2023-04-22T10:00:57.724Z,1.45
2023-04-22T10:03:24.936Z,3.50
2023-04-22T10:05:54.696Z,4.22
2023-04-22T10:08:21.902Z,3.53
2023-04-22T10:10:48.970Z,3.30
2023-04-22T10:13:16.146Z,2.58
2023-04-22T10:15:52.024Z,4.07
2023-04-22T10:18:27.436Z,3.40
2023-04-22T10:20:58.139Z,4.03
2023-04-22T10:23:25.678Z,3.67
2023-04-22T10:26:01.108Z,4.10
2023-04-22T10:28:30.413Z,3.83
2023-04-22T10:30:57.577Z,4.30
2023-04-22T10:33:24.464Z,3.78
2023-04-22T10:36:09.427Z,3.97
2023-04-22T10:39:01.896Z,4.07
2023-04-22T10:41:37.741Z,4.80
2023-04-22T10:44:08.936Z,4.65
2023-04-22T10:46:42.526Z,4.82
2023-04-22T10:49:11.399Z,4.05
2023-04-22T10:52:00.561Z,4.55
2023-04-22T10:54:30.610Z,5.07
2023-04-22T10:57:06.020Z,4.55
2023-04-22T10:59:41.574Z,3.95
2023-04-22T11:02:09.669Z,3.88
2023-04-22T11:04:37.380Z,4.03
2023-04-22T11:07:26.925Z,4.22
2023-04-22T11:10:07.422Z,4.60
2023-04-22T11:12:41.220Z,4.68
2023-04-22T11:15:26.236Z,3.85
2023-04-22T11:17:55.060Z,4.72
2023-04-22T11:20:24.132Z,4.32
2023-04-22T11:22:56.791Z,3.88
2023-04-22T11:25:25.968Z,4.22
2023-04-22T11:27:56.628Z,4.50
2023-04-22T11:30:31.668Z,4.20
2023-04-22T11:33:00.767Z,4.18
2023-04-22T11:35:34.289Z,4.25
2023-04-22T11:38:06.174Z,3.65
2023-04-22T11:40:45.098Z,3.90
2023-04-22T11:43:13.918Z,4.70
2023-04-22T11:45:41.257Z,4.50
2023-04-22T11:48:11.374Z,3.47
2023-04-22T11:50:44.100Z,3.83
2023-04-22T11:53:24.321Z,3.72
2023-04-22T11:55:52.095Z,3.83
2023-04-22T11:58:25.604Z,3.88
2023-04-22T12:00:54.486Z,3.78
2023-04-22T12:03:25.125Z,4.20
2023-04-22T12:06:01.288Z,4.15
2023-04-22T12:08:47.293Z,4.53
2023-04-22T12:11:14.349Z,2.85
2023-04-22T12:13:45.578Z,4.10
2023-04-22T12:16:17.345Z,4.70
2023-04-22T12:18:52.102Z,4.00
2023-04-22T12:21:28.469Z,4.85
2023-04-22T12:24:08.283Z,4.00
2023-04-22T12:26:35.927Z,4.60
2023-04-22T12:29:02.908Z,4.13
2023-04-22T12:31:29.911Z,4.88
2023-04-22T12:33:57.340Z,5.45
2023-04-22T12:36:25.166Z,5.03
2023-04-22T12:38:52.631Z,5.13
2023-04-22T12:41:19.657Z,4.95
2023-04-22T12:43:46.710Z,4.25
2023-04-22T12:46:13.746Z,4.82
2023-04-22T12:48:42.727Z,4.82
2023-04-22T12:51:09.897Z,5.15
2023-04-22T12:53:36.892Z,5.40
2023-04-22T12:56:04.150Z,5.25
2023-04-22T12:58:31.220Z,4.93
2023-04-22T13:00:58.180Z,4.80
2023-04-22T13:03:25.377Z,4.70
2023-04-22T13:05:53.034Z,5.15
2023-04-22T13:08:20.238Z,4.50
2023-04-22T13:10:47.520Z,4.63
2023-04-22T13:13:18.590Z,4.68
2023-04-22T13:15:50.049Z,4.97
2023-04-22T13:18:17.143Z,4.35
2023-04-22T13:20:44.433Z,5.22
2023-04-22T13:23:13.158Z,5.15
2023-04-22T13:25:40.295Z,6.00
2023-04-22T13:28:07.302Z,5.78
2023-04-22T13:30:34.366Z,5.13
2023-04-22T13:33:01.464Z,5.60
2023-04-22T13:35:28.471Z,4.88
2023-04-22T13:37:55.468Z,5.80
2023-04-22T13:40:22.725Z,5.80
2023-04-22T13:42:49.796Z,5.38
2023-04-22T13:45:16.861Z,5.60
2023-04-22T13:47:43.916Z,5.43
2023-04-22T13:50:11.397Z,6.10
2023-04-22T13:52:38.493Z,5.50
2023-04-22T13:55:06.764Z,6.53
2023-04-22T13:57:33.767Z,6.65
2023-04-22T14:00:00.725Z,6.38
2023-04-22T14:02:28.244Z,6.43
2023-04-22T14:04:55.240Z,6.93
2023-04-22T14:07:22.258Z,6.00
2023-04-22T14:09:49.274Z,6.45
2023-04-22T14:12:16.424Z,5.90
2023-04-22T14:14:43.521Z,6.53
2023-04-22T14:17:10.706Z,7.05
2023-04-22T14:19:39.401Z,6.15
2023-04-22T14:22:06.721Z,7.00
2023-04-22T14:24:33.874Z,6.60
2023-04-22T14:27:04.162Z,7.60
2023-04-22T14:29:31.915Z,7.35
2023-04-22T14:31:59.516Z,6.50
2023-04-22T14:34:27.329Z,6.93
2023-04-22T14:36:54.614Z,7.32
2023-04-22T14:39:21.694Z,6.38
2023-04-22T14:41:48.944Z,6.75
2023-04-22T14:44:16.218Z,6.70
2023-04-22T14:46:43.254Z,7.22
2023-04-22T14:49:10.225Z,6.68
2023-04-22T14:51:37.302Z,7.57
2023-04-22T14:54:04.740Z,5.03
2023-04-22T14:56:31.859Z,8.15
2023-04-22T14:58:58.901Z,9.43
2023-04-22T15:01:26.249Z,8.55
2023-04-22T15:03:53.556Z,8.32
2023-04-22T15:06:20.668Z,8.75
2023-04-22T15:08:47.723Z,7.70
2023-04-22T15:11:14.794Z,7.90
2023-04-22T15:13:41.756Z,4.00
2023-04-22T15:16:08.818Z,8.10
2023-04-22T15:18:36.061Z,7.00
2023-04-22T15:21:05.778Z,6.75
2023-04-22T15:23:33.075Z,7.07
2023-04-22T15:26:00.103Z,5.90
2023-04-22T15:28:27.196Z,6.63
2023-04-22T15:30:54.190Z,7.22
2023-04-22T15:33:21.324Z,6.68
2023-04-22T15:35:50.065Z,5.75
2023-04-22T15:38:17.597Z,7.07
2023-04-22T15:40:44.674Z,6.72
2023-04-22T15:43:12.015Z,6.32
2023-04-22T15:45:39.122Z,5.28
2023-04-22T15:48:06.172Z,5.43
2023-04-22T15:50:33.341Z,6.50
2023-04-22T15:53:00.427Z,6.75
2023-04-22T15:55:27.419Z,7.00
2023-04-22T15:57:54.530Z,7.80
2023-04-22T16:00:21.577Z,7.10
2023-04-22T16:02:55.354Z,7.75
2023-04-22T16:05:24.778Z,6.93
2023-04-22T16:07:53.325Z,6.88
2023-04-22T16:10:20.862Z,7.18
2023-04-22T16:12:47.982Z,5.80
2023-04-22T16:15:15.070Z,6.30
2023-04-22T16:17:43.130Z,5.75
2023-04-22T16:20:10.773Z,5.20
2023-04-22T16:22:37.765Z,5.10
2023-04-22T16:25:05.769Z,5.80
2023-04-22T16:27:32.869Z,6.10
2023-04-22T16:30:00.014Z,6.57
2023-04-22T16:32:27.064Z,5.65
2023-04-22T16:34:54.057Z,5.63
2023-04-22T16:37:21.021Z,5.15
2023-04-22T16:39:48.122Z,4.80
2023-04-22T16:42:15.246Z,3.20
2023-04-22T16:44:42.273Z,5.82
2023-04-22T16:47:09.234Z,5.13
2023-04-22T16:49:36.358Z,4.60
2023-04-22T16:52:03.650Z,4.80
2023-04-22T16:54:30.712Z,4.68
2023-04-22T16:56:57.832Z,5.32
2023-04-22T16:59:24.920Z,5.50
2023-04-22T17:01:52.275Z,4.95
2023-04-22T17:04:19.438Z,5.65
2023-04-22T17:06:46.625Z,4.93
2023-04-22T17:09:13.673Z,5.05
2023-04-22T17:11:40.784Z,5.78
2023-04-22T17:14:08.350Z,7.10
2023-04-22T17:16:35.497Z,6.93
2023-04-22T17:19:02.559Z,7.53
2023-04-22T17:21:29.685Z,6.88
2023-04-22T17:23:58.672Z,7.20
2023-04-22T17:26:26.041Z,7.03
2023-04-22T17:28:53.026Z,7.03
2023-04-22T17:31:20.464Z,7.15
2023-04-22T17:33:47.908Z,6.70
2023-04-22T17:36:15.060Z,7.72
2023-04-22T17:38:42.019Z,7.88
2023-04-22T17:41:09.164Z,9.10
2023-04-22T17:43:36.232Z,8.68
2023-04-22T17:46:03.413Z,8.60
2023-04-22T17:48:30.369Z,8.55
2023-04-22T17:51:01.390Z,8.85
2023-04-22T17:53:28.412Z,9.02
2023-04-22T17:55:55.336Z,9.48
2023-04-22T17:58:22.298Z,10.02
2023-04-22T18:00:49.291Z,8.65
2023-04-22T18:03:16.929Z,10.23
2023-04-22T18:05:47.344Z,10.85
2023-04-22T18:08:14.453Z,9.80
2023-04-22T18:10:41.717Z,10.30
2023-04-22T18:13:08.759Z,10.00
2023-04-22T18:15:35.721Z,10.45
2023-04-22T18:18:02.702Z,9.52
2023-04-22T18:20:29.786Z,8.80
2023-04-22T18:22:56.957Z,10.13
2023-04-22T18:25:25.738Z,9.27
2023-04-22T18:27:55.617Z,9.52
2023-04-22T18:30:25.660Z,9.63
2023-04-22T18:32:53.218Z,10.27
2023-04-22T18:35:20.800Z,8.88
2023-04-22T18:37:47.923Z,8.90
2023-04-22T18:40:15.136Z,9.52
2023-04-22T18:42:44.849Z,9.32
2023-04-22T18:45:12.206Z,10.45
2023-04-22T18:47:39.342Z,10.73
2023-04-22T18:50:07.183Z,10.25
2023-04-22T18:52:34.637Z,8.93
2023-04-22T18:55:04.073Z,11.40
2023-04-22T18:57:31.145Z,10.63
2023-04-22T18:59:58.084Z,10.73
2023-04-22T19:02:25.461Z,11.38
2023-04-22T19:04:54.214Z,9.35
2023-04-22T19:07:21.328Z,10.10
2023-04-22T19:09:48.295Z,10.38
2023-04-22T19:12:18.851Z,10.75
2023-04-22T19:14:47.856Z,10.57
2023-04-22T19:17:15.051Z,9.90
2023-04-22T19:19:42.452Z,10.23
2023-04-22T19:22:10.395Z,10.40
2023-04-22T19:24:37.538Z,10.18
2023-04-22T19:27:07.016Z,11.18
2023-04-22T19:29:34.083Z,10.40
2023-04-22T19:32:01.880Z,10.90
2023-04-22T19:34:28.978Z,10.80
2023-04-22T19:36:56.059Z,11.02
2023-04-22T19:39:23.184Z,11.35
2023-04-22T19:41:50.537Z,12.55
2023-04-22T19:44:17.806Z,13.60
2023-04-22T19:46:44.839Z,10.70
2023-04-22T19:49:12.448Z,10.68
2023-04-22T19:51:41.002Z,12.57
2023-04-22T19:54:10.661Z,10.68
2023-04-22T19:56:37.942Z,10.55
2023-04-22T19:59:06.718Z,11.45
2023-04-22T20:01:35.286Z,11.15
2023-04-22T20:04:04.261Z,11.43
2023-04-22T20:06:32.898Z,12.07
2023-04-22T20:09:02.120Z,11.25
2023-04-22T20:11:29.680Z,11.90
2023-04-22T20:13:57.032Z,10.70
2023-04-22T20:16:24.407Z,10.70
2023-04-22T20:18:52.260Z,11.30
2023-04-22T20:21:23.828Z,11.38
2023-04-22T20:23:52.332Z,11.60
2023-04-22T20:26:20.219Z,12.05
2023-04-22T20:28:51.836Z,11.90
2023-04-22T20:31:20.798Z,12.20
2023-04-22T20:33:48.388Z,11.52
2023-04-22T20:36:16.925Z,12.93
2023-04-22T20:38:48.664Z,12.57
2023-04-22T20:41:20.133Z,11.43
2023-04-22T20:43:47.297Z,12.75
2023-04-22T20:46:14.600Z,14.25
2023-04-22T20:48:42.601Z,14.00
2023-04-22T20:51:09.605Z,13.07
2023-04-22T20:53:36.738Z,13.95
2023-04-22T20:56:05.126Z,14.00
2023-04-22T20:58:33.478Z,13.57
2023-04-22T21:01:00.538Z,11.98
2023-04-22T21:03:28.520Z,12.70
2023-04-22T21:05:56.821Z,12.20
2023-04-22T21:08:25.773Z,13.02
2023-04-22T21:10:56.143Z,13.80
2023-04-22T21:13:23.855Z,13.00
2023-04-22T21:16:03.006Z,13.77
2023-04-22T21:18:33.661Z,12.32
2023-04-22T21:21:04.110Z,13.80
2023-04-22T21:23:31.682Z,11.93
2023-04-22T21:26:02.096Z,11.90
2023-04-22T21:28:30.362Z,13.93
2023-04-22T21:30:57.770Z,13.60
2023-04-22T21:33:26.844Z,12.20
2023-04-22T21:35:53.868Z,12.68
2023-04-22T21:38:20.932Z,13.30
2023-04-22T21:40:48.174Z,13.02
2023-04-22T21:43:15.288Z,12.90
2023-04-22T21:45:42.395Z,12.35
2023-04-22T21:48:09.418Z,13.02
2023-04-22T21:50:36.771Z,13.18
2023-04-22T21:53:03.886Z,12.63
2023-04-22T21:55:30.967Z,12.95
2023-04-22T21:57:57.900Z,13.48
2023-04-22T22:00:25.123Z,11.70
2023-04-22T22:02:53.113Z,11.27
2023-04-22T22:05:20.574Z,12.15
2023-04-22T22:07:48.742Z,11.35
2023-04-22T22:10:22.485Z,10.68
2023-04-22T22:12:50.505Z,12.23
2023-04-22T22:15:17.763Z,11.63
2023-04-22T22:17:46.306Z,10.88
2023-04-22T22:20:18.190Z,11.55
2023-04-22T22:22:45.213Z,11.17
2023-04-22T22:25:15.215Z,11.73
2023-04-22T22:27:48.630Z,9.85
2023-04-22T22:30:18.212Z,10.40
2023-04-22T22:32:45.797Z,10.18
2023-04-22T22:35:13.365Z,9.93
2023-04-22T22:37:41.045Z,10.48
2023-04-22T22:40:09.076Z,11.10
2023-04-22T22:42:36.283Z,10.05
2023-04-22T22:45:05.197Z,9.18
2023-04-22T22:47:32.520Z,9.23
2023-04-22T22:49:59.626Z,9.43
2023-04-22T22:52:26.654Z,9.45
2023-04-22T22:54:53.617Z,9.65
2023-04-22T22:57:20.911Z,9.38
2023-04-22T22:59:47.858Z,8.43
2023-04-22T23:02:15.063Z,8.88
2023-04-22T23:04:42.485Z,9.63
2023-04-22T23:07:09.940Z,8.40
2023-04-22T23:09:36.897Z,8.55
2023-04-22T23:12:04.104Z,8.93
2023-04-22T23:14:33.240Z,7.97
2023-04-22T23:17:01.149Z,8.77
2023-04-22T23:19:29.145Z,8.13
2023-04-22T23:21:56.851Z,7.85
2023-04-22T23:24:24.308Z,8.13
2023-04-22T23:26:51.836Z,7.18
2023-04-22T23:29:19.546Z,7.30
2023-04-22T23:31:49.694Z,7.35
2023-04-22T23:34:19.031Z,7.68
2023-04-22T23:36:46.628Z,7.78
2023-04-22T23:39:13.820Z,7.32
2023-04-22T23:41:40.837Z,6.82
2023-04-22T23:44:07.862Z,7.35
2023-04-22T23:46:35.032Z,7.18
2023-04-22T23:49:02.390Z,7.55
2023-04-22T23:51:29.840Z,6.60
2023-04-22T23:53:56.904Z,7.05
2023-04-22T23:56:24.278Z,6.90
2023-04-22T23:58:51.601Z,7.38
